sensor_id;sensor_type;location;lat;lon;timestamp;P1;durP1;ratioP1;P2;durP2;ratioP2
36423;SDS011;22458;45.328;9.514;2023-04-15T00:00:05;2.28;;;1.65;;
36423;SDS011;22458;45.328;9.514;2023-04-15T00:02:38;2.83;;;1.60;;
36423;SDS011;22458;45.328;9.514;2023-04-15T00:05:04;1.67;;;1.38;;
36423;SDS011;22458;45.328;9.514;2023-04-15T00:07:30;1.60;;;1.30;;
36423;SDS011;22458;45.328;9.514;2023-04-15T00:09:57;1.70;;;1.25;;
36423;SDS011;22458;45.328;9.514;2023-04-15T00:12:23;1.75;;;1.25;;
36423;SDS011;22458;45.328;9.514;2023-04-15T00:14:50;2.08;;;1.55;;
36423;SDS011;22458;45.328;9.514;2023-04-15T00:17:16;2.05;;;1.45;;
36423;SDS011;22458;45.328;9.514;2023-04-15T00:19:42;2.00;;;1.52;;
36423;SDS011;22458;45.328;9.514;2023-04-15T00:22:11;2.38;;;1.50;;
36423;SDS011;22458;45.328;9.514;2023-04-15T00:24:37;1.65;;;1.20;;
36423;SDS011;22458;45.328;9.514;2023-04-15T00:27:03;2.20;;;1.30;;
36423;SDS011;22458;45.328;9.514;2023-04-15T00:29:30;2.45;;;1.80;;
36423;SDS011;22458;45.328;9.514;2023-04-15T00:31:56;2.13;;;1.73;;
36423;SDS011;22458;45.328;9.514;2023-04-15T00:34:22;2.20;;;1.65;;
36423;SDS011;22458;45.328;9.514;2023-04-15T00:36:48;1.80;;;1.60;;
36423;SDS011;22458;45.328;9.514;2023-04-15T00:39:15;2.00;;;1.80;;
36423;SDS011;22458;45.328;9.514;2023-04-15T00:41:41;2.38;;;1.70;;
36423;SDS011;22458;45.328;9.514;2023-04-15T00:44:08;2.03;;;1.60;;
36423;SDS011;22458;45.328;9.514;2023-04-15T00:46:35;2.95;;;1.75;;
36423;SDS011;22458;45.328;9.514;2023-04-15T00:49:05;2.38;;;1.80;;
36423;SDS011;22458;45.328;9.514;2023-04-15T00:51:34;2.40;;;1.75;;
36423;SDS011;22458;45.328;9.514;2023-04-15T00:54:04;1.83;;;1.50;;
36423;SDS011;22458;45.328;9.514;2023-04-15T00:56:35;2.28;;;1.70;;
36423;SDS011;22458;45.328;9.514;2023-04-15T00:59:02;2.55;;;1.73;;
36423;SDS011;22458;45.328;9.514;2023-04-15T01:01:30;2.85;;;1.52;;
36423;SDS011;22458;45.328;9.514;2023-04-15T01:03:58;3.38;;;1.65;;
36423;SDS011;22458;45.328;9.514;2023-04-15T01:06:25;2.00;;;1.70;;
36423;SDS011;22458;45.328;9.514;2023-04-15T01:08:53;3.03;;;2.20;;
36423;SDS011;22458;45.328;9.514;2023-04-15T01:11:19;3.05;;;2.00;;
36423;SDS011;22458;45.328;9.514;2023-04-15T01:13:46;2.90;;;1.90;;
36423;SDS011;22458;45.328;9.514;2023-04-15T01:16:12;2.10;;;1.85;;
36423;SDS011;22458;45.328;9.514;2023-04-15T01:18:38;2.95;;;1.77;;
36423;SDS011;22458;45.328;9.514;2023-04-15T01:21:05;2.80;;;1.92;;
36423;SDS011;22458;45.328;9.514;2023-04-15T01:23:32;2.95;;;2.13;;
36423;SDS011;22458;45.328;9.514;2023-04-15T01:26:01;2.53;;;2.28;;
36423;SDS011;22458;45.328;9.514;2023-04-15T01:28:27;2.70;;;2.30;;
36423;SDS011;22458;45.328;9.514;2023-04-15T01:31:12;3.55;;;2.72;;
36423;SDS011;22458;45.328;9.514;2023-04-15T01:33:40;4.40;;;2.75;;
36423;SDS011;22458;45.328;9.514;2023-04-15T01:36:06;2.63;;;2.20;;
36423;SDS011;22458;45.328;9.514;2023-04-15T01:38:34;3.63;;;2.53;;
36423;SDS011;22458;45.328;9.514;2023-04-15T01:41:01;2.55;;;2.20;;
36423;SDS011;22458;45.328;9.514;2023-04-15T01:43:28;3.40;;;2.38;;
36423;SDS011;22458;45.328;9.514;2023-04-15T01:45:54;4.40;;;3.10;;
36423;SDS011;22458;45.328;9.514;2023-04-15T01:48:20;3.00;;;2.53;;
36423;SDS011;22458;45.328;9.514;2023-04-15T01:50:47;2.80;;;2.30;;
36423;SDS011;22458;45.328;9.514;2023-04-15T01:53:13;3.42;;;2.90;;
36423;SDS011;22458;45.328;9.514;2023-04-15T01:55:40;3.90;;;2.78;;
36423;SDS011;22458;45.328;9.514;2023-04-15T01:58:05;4.03;;;2.90;;
36423;SDS011;22458;45.328;9.514;2023-04-15T02:00:31;3.90;;;2.78;;
36423;SDS011;22458;45.328;9.514;2023-04-15T02:02:58;4.85;;;3.05;;
36423;SDS011;22458;45.328;9.514;2023-04-15T02:05:24;4.60;;;2.50;;
36423;SDS011;22458;45.328;9.514;2023-04-15T02:07:50;3.25;;;2.75;;
36423;SDS011;22458;45.328;9.514;2023-04-15T02:10:16;3.78;;;2.80;;
36423;SDS011;22458;45.328;9.514;2023-04-15T02:12:42;3.17;;;2.42;;
36423;SDS011;22458;45.328;9.514;2023-04-15T02:15:08;2.95;;;2.42;;
36423;SDS011;22458;45.328;9.514;2023-04-15T02:17:34;2.85;;;2.38;;
36423;SDS011;22458;45.328;9.514;2023-04-15T02:20:02;2.70;;;2.40;;
36423;SDS011;22458;45.328;9.514;2023-04-15T02:22:30;4.57;;;2.70;;
36423;SDS011;22458;45.328;9.514;2023-04-15T02:24:56;3.28;;;2.55;;
36423;SDS011;22458;45.328;9.514;2023-04-15T02:27:22;4.80;;;2.53;;
36423;SDS011;22458;45.328;9.514;2023-04-15T02:29:48;3.30;;;2.40;;
36423;SDS011;22458;45.328;9.514;2023-04-15T02:32:15;3.72;;;2.30;;
36423;SDS011;22458;45.328;9.514;2023-04-15T02:34:41;3.15;;;2.40;;
36423;SDS011;22458;45.328;9.514;2023-04-15T02:37:09;3.42;;;2.80;;
36423;SDS011;22458;45.328;9.514;2023-04-15T02:39:35;2.75;;;2.28;;
36423;SDS011;22458;45.328;9.514;2023-04-15T02:42:02;4.13;;;3.00;;
36423;SDS011;22458;45.328;9.514;2023-04-15T02:44:29;4.90;;;2.47;;
36423;SDS011;22458;45.328;9.514;2023-04-15T02:46:59;4.13;;;2.90;;
36423;SDS011;22458;45.328;9.514;2023-04-15T02:49:25;4.55;;;2.83;;
36423;SDS011;22458;45.328;9.514;2023-04-15T02:51:50;2.97;;;2.67;;
36423;SDS011;22458;45.328;9.514;2023-04-15T02:54:18;3.22;;;2.92;;
36423;SDS011;22458;45.328;9.514;2023-04-15T02:56:44;2.88;;;2.40;;
36423;SDS011;22458;45.328;9.514;2023-04-15T02:59:11;2.60;;;2.35;;
36423;SDS011;22458;45.328;9.514;2023-04-15T03:01:37;3.63;;;2.92;;
36423;SDS011;22458;45.328;9.514;2023-04-15T03:04:03;3.60;;;2.47;;
36423;SDS011;22458;45.328;9.514;2023-04-15T03:06:29;2.88;;;2.50;;
36423;SDS011;22458;45.328;9.514;2023-04-15T03:08:55;3.45;;;2.55;;
36423;SDS011;22458;45.328;9.514;2023-04-15T03:11:22;4.20;;;2.30;;
36423;SDS011;22458;45.328;9.514;2023-04-15T03:13:48;3.47;;;2.45;;
36423;SDS011;22458;45.328;9.514;2023-04-15T03:16:23;4.25;;;2.60;;
36423;SDS011;22458;45.328;9.514;2023-04-15T03:18:50;4.45;;;2.78;;
36423;SDS011;22458;45.328;9.514;2023-04-15T03:21:18;4.30;;;2.30;;
36423;SDS011;22458;45.328;9.514;2023-04-15T03:23:47;3.70;;;2.60;;
36423;SDS011;22458;45.328;9.514;2023-04-15T03:28:54;4.18;;;3.00;;
36423;SDS011;22458;45.328;9.514;2023-04-15T03:31:20;4.53;;;3.33;;
36423;SDS011;22458;45.328;9.514;2023-04-15T03:33:46;3.42;;;3.13;;
36423;SDS011;22458;45.328;9.514;2023-04-15T03:36:12;4.03;;;2.70;;
36423;SDS011;22458;45.328;9.514;2023-04-15T03:38:37;3.35;;;2.70;;
36423;SDS011;22458;45.328;9.514;2023-04-15T03:41:03;3.90;;;2.70;;
36423;SDS011;22458;45.328;9.514;2023-04-15T03:43:29;3.75;;;2.90;;
36423;SDS011;22458;45.328;9.514;2023-04-15T03:45:55;7.32;;;2.88;;
36423;SDS011;22458;45.328;9.514;2023-04-15T03:48:21;4.10;;;3.22;;
36423;SDS011;22458;45.328;9.514;2023-04-15T03:50:47;4.10;;;2.70;;
36423;SDS011;22458;45.328;9.514;2023-04-15T03:53:12;4.07;;;2.95;;
36423;SDS011;22458;45.328;9.514;2023-04-15T03:55:38;4.72;;;3.65;;
36423;SDS011;22458;45.328;9.514;2023-04-15T03:58:04;3.28;;;2.80;;
36423;SDS011;22458;45.328;9.514;2023-04-15T04:00:30;3.72;;;3.03;;
36423;SDS011;22458;45.328;9.514;2023-04-15T04:02:56;4.82;;;3.30;;
36423;SDS011;22458;45.328;9.514;2023-04-15T04:05:22;3.90;;;2.97;;
36423;SDS011;22458;45.328;9.514;2023-04-15T04:07:48;4.57;;;3.20;;
36423;SDS011;22458;45.328;9.514;2023-04-15T04:10:14;4.82;;;2.40;;
36423;SDS011;22458;45.328;9.514;2023-04-15T04:12:39;5.47;;;3.70;;
36423;SDS011;22458;45.328;9.514;2023-04-15T04:15:05;3.78;;;2.90;;
36423;SDS011;22458;45.328;9.514;2023-04-15T04:17:32;3.50;;;3.17;;
36423;SDS011;22458;45.328;9.514;2023-04-15T04:19:58;5.18;;;3.85;;
36423;SDS011;22458;45.328;9.514;2023-04-15T04:22:23;6.13;;;4.80;;
36423;SDS011;22458;45.328;9.514;2023-04-15T04:24:49;8.13;;;4.05;;
36423;SDS011;22458;45.328;9.514;2023-04-15T04:27:15;6.13;;;3.85;;
36423;SDS011;22458;45.328;9.514;2023-04-15T04:29:41;3.20;;;2.90;;
36423;SDS011;22458;45.328;9.514;2023-04-15T04:32:07;3.65;;;3.28;;
36423;SDS011;22458;45.328;9.514;2023-04-15T04:34:32;3.22;;;2.50;;
36423;SDS011;22458;45.328;9.514;2023-04-15T04:36:58;3.85;;;2.70;;
36423;SDS011;22458;45.328;9.514;2023-04-15T04:39:24;4.75;;;2.90;;
36423;SDS011;22458;45.328;9.514;2023-04-15T04:41:50;4.05;;;2.38;;
36423;SDS011;22458;45.328;9.514;2023-04-15T04:44:16;3.97;;;2.80;;
36423;SDS011;22458;45.328;9.514;2023-04-15T04:46:42;3.22;;;2.70;;
36423;SDS011;22458;45.328;9.514;2023-04-15T04:49:08;3.35;;;2.67;;
36423;SDS011;22458;45.328;9.514;2023-04-15T04:51:34;3.35;;;2.63;;
36423;SDS011;22458;45.328;9.514;2023-04-15T04:54:00;4.35;;;2.53;;
36423;SDS011;22458;45.328;9.514;2023-04-15T04:56:26;3.00;;;2.17;;
36423;SDS011;22458;45.328;9.514;2023-04-15T04:58:51;2.65;;;1.88;;
36423;SDS011;22458;45.328;9.514;2023-04-15T05:01:17;3.15;;;2.35;;
36423;SDS011;22458;45.328;9.514;2023-04-15T05:03:43;5.30;;;2.63;;
36423;SDS011;22458;45.328;9.514;2023-04-15T05:06:09;5.85;;;3.10;;
36423;SDS011;22458;45.328;9.514;2023-04-15T05:08:35;3.13;;;2.33;;
36423;SDS011;22458;45.328;9.514;2023-04-15T05:11:01;4.25;;;2.90;;
36423;SDS011;22458;45.328;9.514;2023-04-15T05:13:30;4.47;;;2.60;;
36423;SDS011;22458;45.328;9.514;2023-04-15T05:15:56;3.42;;;2.72;;
36423;SDS011;22458;45.328;9.514;2023-04-15T05:18:22;2.72;;;2.22;;
36423;SDS011;22458;45.328;9.514;2023-04-15T05:20:48;3.85;;;2.78;;
36423;SDS011;22458;45.328;9.514;2023-04-15T05:23:14;2.97;;;2.35;;
36423;SDS011;22458;45.328;9.514;2023-04-15T05:25:40;2.65;;;2.40;;
36423;SDS011;22458;45.328;9.514;2023-04-15T05:28:06;2.83;;;2.20;;
36423;SDS011;22458;45.328;9.514;2023-04-15T05:30:32;4.63;;;2.83;;
36423;SDS011;22458;45.328;9.514;2023-04-15T05:32:57;4.60;;;3.13;;
36423;SDS011;22458;45.328;9.514;2023-04-15T05:35:23;2.97;;;2.42;;
36423;SDS011;22458;45.328;9.514;2023-04-15T05:37:49;2.90;;;2.53;;
36423;SDS011;22458;45.328;9.514;2023-04-15T05:40:15;4.65;;;2.30;;
36423;SDS011;22458;45.328;9.514;2023-04-15T05:42:41;3.63;;;2.55;;
36423;SDS011;22458;45.328;9.514;2023-04-15T05:45:07;3.22;;;2.67;;
36423;SDS011;22458;45.328;9.514;2023-04-15T05:47:36;4.40;;;2.70;;
36423;SDS011;22458;45.328;9.514;2023-04-15T05:50:02;4.55;;;2.42;;
36423;SDS011;22458;45.328;9.514;2023-04-15T05:52:29;3.55;;;2.90;;
36423;SDS011;22458;45.328;9.514;2023-04-15T05:54:55;3.97;;;3.50;;
36423;SDS011;22458;45.328;9.514;2023-04-15T05:57:21;5.90;;;3.22;;
36423;SDS011;22458;45.328;9.514;2023-04-15T05:59:47;4.18;;;2.85;;
36423;SDS011;22458;45.328;9.514;2023-04-15T06:02:13;4.90;;;3.60;;
36423;SDS011;22458;45.328;9.514;2023-04-15T06:04:39;4.75;;;3.58;;
36423;SDS011;22458;45.328;9.514;2023-04-15T06:07:05;6.47;;;3.85;;
36423;SDS011;22458;45.328;9.514;2023-04-15T06:09:30;4.88;;;3.63;;
36423;SDS011;22458;45.328;9.514;2023-04-15T06:11:57;4.65;;;3.67;;
36423;SDS011;22458;45.328;9.514;2023-04-15T06:14:23;4.10;;;3.70;;
36423;SDS011;22458;45.328;9.514;2023-04-15T06:16:49;4.13;;;3.65;;
36423;SDS011;22458;45.328;9.514;2023-04-15T06:19:15;4.30;;;3.90;;
36423;SDS011;22458;45.328;9.514;2023-04-15T06:21:41;7.30;;;5.13;;
36423;SDS011;22458;45.328;9.514;2023-04-15T06:24:06;12.15;;;4.60;;
36423;SDS011;22458;45.328;9.514;2023-04-15T06:26:32;8.77;;;4.00;;
36423;SDS011;22458;45.328;9.514;2023-04-15T06:28:58;6.65;;;4.25;;
36423;SDS011;22458;45.328;9.514;2023-04-15T06:31:23;4.25;;;3.85;;
36423;SDS011;22458;45.328;9.514;2023-04-15T06:33:49;4.70;;;4.15;;
36423;SDS011;22458;45.328;9.514;2023-04-15T06:36:15;8.23;;;4.65;;
36423;SDS011;22458;45.328;9.514;2023-04-15T06:38:41;4.72;;;4.10;;
36423;SDS011;22458;45.328;9.514;2023-04-15T06:41:06;5.63;;;4.00;;
36423;SDS011;22458;45.328;9.514;2023-04-15T06:43:32;4.40;;;4.00;;
36423;SDS011;22458;45.328;9.514;2023-04-15T06:45:58;4.80;;;3.83;;
36423;SDS011;22458;45.328;9.514;2023-04-15T06:48:24;8.40;;;4.03;;
36423;SDS011;22458;45.328;9.514;2023-04-15T06:50:50;6.57;;;4.22;;
36423;SDS011;22458;45.328;9.514;2023-04-15T06:53:16;5.57;;;4.20;;
36423;SDS011;22458;45.328;9.514;2023-04-15T06:55:42;6.60;;;4.07;;
36423;SDS011;22458;45.328;9.514;2023-04-15T06:58:08;7.50;;;4.20;;
36423;SDS011;22458;45.328;9.514;2023-04-15T07:00:34;6.07;;;4.57;;
36423;SDS011;22458;45.328;9.514;2023-04-15T07:02:59;4.00;;;3.60;;
36423;SDS011;22458;45.328;9.514;2023-04-15T07:05:28;4.43;;;3.75;;
36423;SDS011;22458;45.328;9.514;2023-04-15T07:07:55;5.40;;;4.38;;
36423;SDS011;22458;45.328;9.514;2023-04-15T07:10:21;4.38;;;3.50;;
36423;SDS011;22458;45.328;9.514;2023-04-15T07:12:48;4.93;;;4.00;;
36423;SDS011;22458;45.328;9.514;2023-04-15T07:15:14;5.75;;;4.55;;
36423;SDS011;22458;45.328;9.514;2023-04-15T07:17:40;6.07;;;4.22;;
36423;SDS011;22458;45.328;9.514;2023-04-15T07:20:07;5.75;;;3.85;;
36423;SDS011;22458;45.328;9.514;2023-04-15T07:22:33;4.18;;;3.50;;
36423;SDS011;22458;45.328;9.514;2023-04-15T07:24:59;4.68;;;3.50;;
36423;SDS011;22458;45.328;9.514;2023-04-15T07:27:25;6.07;;;3.65;;
36423;SDS011;22458;45.328;9.514;2023-04-15T07:29:51;5.07;;;3.97;;
36423;SDS011;22458;45.328;9.514;2023-04-15T07:32:17;4.60;;;3.50;;
36423;SDS011;22458;45.328;9.514;2023-04-15T07:34:43;3.92;;;3.17;;
36423;SDS011;22458;45.328;9.514;2023-04-15T07:37:09;3.50;;;3.20;;
36423;SDS011;22458;45.328;9.514;2023-04-15T07:39:35;4.10;;;3.10;;
36423;SDS011;22458;45.328;9.514;2023-04-15T07:42:01;3.50;;;2.42;;
36423;SDS011;22458;45.328;9.514;2023-04-15T07:44:28;3.67;;;2.58;;
36423;SDS011;22458;45.328;9.514;2023-04-15T07:46:55;4.45;;;2.60;;
36423;SDS011;22458;45.328;9.514;2023-04-15T07:49:21;5.80;;;2.35;;
36423;SDS011;22458;45.328;9.514;2023-04-15T07:51:47;3.70;;;2.45;;
36423;SDS011;22458;45.328;9.514;2023-04-15T07:54:13;3.65;;;2.65;;
36423;SDS011;22458;45.328;9.514;2023-04-15T07:56:39;3.22;;;2.40;;
36423;SDS011;22458;45.328;9.514;2023-04-15T07:59:07;3.15;;;2.80;;
36423;SDS011;22458;45.328;9.514;2023-04-15T08:01:34;5.93;;;2.90;;
36423;SDS011;22458;45.328;9.514;2023-04-15T08:03:59;3.22;;;2.75;;
36423;SDS011;22458;45.328;9.514;2023-04-15T08:06:25;3.92;;;2.78;;
36423;SDS011;22458;45.328;9.514;2023-04-15T08:08:51;4.50;;;2.60;;
36423;SDS011;22458;45.328;9.514;2023-04-15T08:11:19;3.85;;;2.70;;
36423;SDS011;22458;45.328;9.514;2023-04-15T08:13:45;4.45;;;2.55;;
36423;SDS011;22458;45.328;9.514;2023-04-15T08:16:12;2.90;;;2.60;;
36423;SDS011;22458;45.328;9.514;2023-04-15T08:18:42;4.63;;;2.88;;
36423;SDS011;22458;45.328;9.514;2023-04-15T08:21:09;6.65;;;2.78;;
36423;SDS011;22458;45.328;9.514;2023-04-15T08:23:35;4.20;;;3.15;;
36423;SDS011;22458;45.328;9.514;2023-04-15T08:26:02;4.15;;;3.47;;
36423;SDS011;22458;45.328;9.514;2023-04-15T08:28:28;3.13;;;2.72;;
36423;SDS011;22458;45.328;9.514;2023-04-15T08:30:54;4.38;;;2.50;;
36423;SDS011;22458;45.328;9.514;2023-04-15T08:33:20;3.50;;;2.58;;
36423;SDS011;22458;45.328;9.514;2023-04-15T08:35:46;3.10;;;2.53;;
36423;SDS011;22458;45.328;9.514;2023-04-15T08:38:12;5.57;;;2.78;;
36423;SDS011;22458;45.328;9.514;2023-04-15T08:40:42;5.07;;;2.55;;
36423;SDS011;22458;45.328;9.514;2023-04-15T08:43:09;2.55;;;2.25;;
36423;SDS011;22458;45.328;9.514;2023-04-15T08:45:37;4.90;;;2.57;;
36423;SDS011;22458;45.328;9.514;2023-04-15T08:48:04;2.50;;;2.00;;
36423;SDS011;22458;45.328;9.514;2023-04-15T08:50:33;4.47;;;2.55;;
36423;SDS011;22458;45.328;9.514;2023-04-15T08:52:59;3.80;;;2.55;;
36423;SDS011;22458;45.328;9.514;2023-04-15T08:55:27;4.57;;;2.63;;
36423;SDS011;22458;45.328;9.514;2023-04-15T08:57:58;3.50;;;2.40;;
36423;SDS011;22458;45.328;9.514;2023-04-15T09:00:25;4.55;;;2.45;;
36423;SDS011;22458;45.328;9.514;2023-04-15T09:02:51;4.82;;;2.70;;
36423;SDS011;22458;45.328;9.514;2023-04-15T09:05:18;5.25;;;3.30;;
36423;SDS011;22458;45.328;9.514;2023-04-15T09:07:45;3.92;;;2.70;;
36423;SDS011;22458;45.328;9.514;2023-04-15T09:10:11;4.13;;;3.50;;
36423;SDS011;22458;45.328;9.514;2023-04-15T09:12:37;2.67;;;2.47;;
36423;SDS011;22458;45.328;9.514;2023-04-15T09:15:03;11.18;;;6.70;;
36423;SDS011;22458;45.328;9.514;2023-04-15T09:17:29;4.75;;;3.78;;
36423;SDS011;22458;45.328;9.514;2023-04-15T09:20:10;5.45;;;2.95;;
36423;SDS011;22458;45.328;9.514;2023-04-15T09:22:41;4.97;;;3.55;;
36423;SDS011;22458;45.328;9.514;2023-04-15T09:27:47;4.07;;;2.30;;
36423;SDS011;22458;45.328;9.514;2023-04-15T09:30:13;4.85;;;3.67;;
36423;SDS011;22458;45.328;9.514;2023-04-15T09:33:13;3.28;;;2.67;;
36423;SDS011;22458;45.328;9.514;2023-04-15T09:35:35;3.95;;;2.42;;
36423;SDS011;22458;45.328;9.514;2023-04-15T09:38:07;2.88;;;2.58;;
36423;SDS011;22458;45.328;9.514;2023-04-15T09:40:35;3.55;;;3.17;;
36423;SDS011;22458;45.328;9.514;2023-04-15T09:43:02;4.05;;;3.13;;
36423;SDS011;22458;45.328;9.514;2023-04-15T09:45:29;3.63;;;2.75;;
36423;SDS011;22458;45.328;9.514;2023-04-15T09:47:56;3.70;;;3.13;;
36423;SDS011;22458;45.328;9.514;2023-04-15T09:50:26;2.92;;;2.53;;
36423;SDS011;22458;45.328;9.514;2023-04-15T09:52:53;3.28;;;2.97;;
36423;SDS011;22458;45.328;9.514;2023-04-15T09:55:18;3.97;;;2.60;;
36423;SDS011;22458;45.328;9.514;2023-04-15T09:57:44;4.18;;;2.85;;
36423;SDS011;22458;45.328;9.514;2023-04-15T10:00:13;4.15;;;2.70;;
36423;SDS011;22458;45.328;9.514;2023-04-15T10:02:40;4.18;;;2.72;;
36423;SDS011;22458;45.328;9.514;2023-04-15T10:05:06;5.93;;;2.72;;
36423;SDS011;22458;45.328;9.514;2023-04-15T10:07:37;3.88;;;2.90;;
36423;SDS011;22458;45.328;9.514;2023-04-15T10:10:05;4.57;;;3.25;;
36423;SDS011;22458;45.328;9.514;2023-04-15T10:12:31;5.47;;;2.80;;
36423;SDS011;22458;45.328;9.514;2023-04-15T10:14:58;4.72;;;3.15;;
36423;SDS011;22458;45.328;9.514;2023-04-15T10:17:29;3.50;;;2.75;;
36423;SDS011;22458;45.328;9.514;2023-04-15T10:20:01;3.60;;;2.40;;
36423;SDS011;22458;45.328;9.514;2023-04-15T10:22:29;5.07;;;2.65;;
36423;SDS011;22458;45.328;9.514;2023-04-15T10:24:55;3.85;;;3.00;;
36423;SDS011;22458;45.328;9.514;2023-04-15T10:27:22;3.28;;;2.80;;
36423;SDS011;22458;45.328;9.514;2023-04-15T10:29:49;3.25;;;2.95;;
36423;SDS011;22458;45.328;9.514;2023-04-15T10:32:16;4.32;;;2.47;;
36423;SDS011;22458;45.328;9.514;2023-04-15T10:34:44;5.32;;;2.78;;
36423;SDS011;22458;45.328;9.514;2023-04-15T10:37:11;3.70;;;2.38;;
36423;SDS011;22458;45.328;9.514;2023-04-15T10:42:10;3.92;;;2.72;;
36423;SDS011;22458;45.328;9.514;2023-04-15T10:44:41;3.17;;;2.80;;
36423;SDS011;22458;45.328;9.514;2023-04-15T10:47:15;4.45;;;2.80;;
36423;SDS011;22458;45.328;9.514;2023-04-15T10:49:44;4.28;;;3.33;;
36423;SDS011;22458;45.328;9.514;2023-04-15T10:52:10;3.17;;;2.88;;
36423;SDS011;22458;45.328;9.514;2023-04-15T10:54:36;6.68;;;3.53;;
36423;SDS011;22458;45.328;9.514;2023-04-15T10:59:30;5.65;;;3.40;;
36423;SDS011;22458;45.328;9.514;2023-04-15T11:02:03;4.28;;;3.40;;
36423;SDS011;22458;45.328;9.514;2023-04-15T11:12:41;4.53;;;2.75;;
36423;SDS011;22458;45.328;9.514;2023-04-15T11:17:57;4.88;;;2.60;;
36423;SDS011;22458;45.328;9.514;2023-04-15T11:20:36;3.50;;;2.50;;
36423;SDS011;22458;45.328;9.514;2023-04-15T11:23:03;3.20;;;2.67;;
36423;SDS011;22458;45.328;9.514;2023-04-15T11:25:33;4.85;;;3.00;;
36423;SDS011;22458;45.328;9.514;2023-04-15T11:28:00;3.25;;;2.30;;
36423;SDS011;22458;45.328;9.514;2023-04-15T11:30:27;6.40;;;2.47;;
36423;SDS011;22458;45.328;9.514;2023-04-15T11:32:59;5.07;;;2.13;;
36423;SDS011;22458;45.328;9.514;2023-04-15T11:35:25;4.38;;;2.47;;
36423;SDS011;22458;45.328;9.514;2023-04-15T11:37:52;4.57;;;2.83;;
36423;SDS011;22458;45.328;9.514;2023-04-15T11:40:27;3.60;;;2.08;;
36423;SDS011;22458;45.328;9.514;2023-04-15T11:43:14;6.82;;;3.15;;
36423;SDS011;22458;45.328;9.514;2023-04-15T11:45:48;4.80;;;2.60;;
36423;SDS011;22458;45.328;9.514;2023-04-15T11:48:22;6.38;;;3.40;;
36423;SDS011;22458;45.328;9.514;2023-04-15T11:50:53;4.07;;;2.93;;
36423;SDS011;22458;45.328;9.514;2023-04-15T11:53:21;3.67;;;2.75;;
36423;SDS011;22458;45.328;9.514;2023-04-15T11:55:49;3.05;;;2.75;;
36423;SDS011;22458;45.328;9.514;2023-04-15T11:58:24;5.38;;;3.15;;
36423;SDS011;22458;45.328;9.514;2023-04-15T12:00:51;9.20;;;4.15;;
36423;SDS011;22458;45.328;9.514;2023-04-15T12:03:25;4.43;;;3.70;;
36423;SDS011;22458;45.328;9.514;2023-04-15T12:06:20;3.92;;;3.50;;
36423;SDS011;22458;45.328;9.514;2023-04-15T12:11:39;3.22;;;2.92;;
36423;SDS011;22458;45.328;9.514;2023-04-15T12:16:50;4.15;;;3.17;;
36423;SDS011;22458;45.328;9.514;2023-04-15T12:19:23;4.47;;;3.00;;
36423;SDS011;22458;45.328;9.514;2023-04-15T12:21:50;3.78;;;3.38;;
36423;SDS011;22458;45.328;9.514;2023-04-15T12:24:19;4.30;;;3.47;;
36423;SDS011;22458;45.328;9.514;2023-04-15T12:26:48;4.38;;;3.17;;
36423;SDS011;22458;45.328;9.514;2023-04-15T12:29:18;5.75;;;3.50;;
36423;SDS011;22458;45.328;9.514;2023-04-15T12:31:50;4.05;;;3.45;;
36423;SDS011;22458;45.328;9.514;2023-04-15T12:34:18;3.63;;;3.22;;
36423;SDS011;22458;45.328;9.514;2023-04-15T12:36:54;4.50;;;3.30;;
36423;SDS011;22458;45.328;9.514;2023-04-15T12:39:22;7.07;;;4.05;;
36423;SDS011;22458;45.328;9.514;2023-04-15T12:41:53;3.92;;;3.40;;
36423;SDS011;22458;45.328;9.514;2023-04-15T12:44:21;4.90;;;3.15;;
36423;SDS011;22458;45.328;9.514;2023-04-15T12:46:48;5.47;;;3.80;;
36423;SDS011;22458;45.328;9.514;2023-04-15T12:49:14;3.67;;;3.28;;
36423;SDS011;22458;45.328;9.514;2023-04-15T12:51:43;4.10;;;3.45;;
36423;SDS011;22458;45.328;9.514;2023-04-15T12:54:09;3.72;;;3.42;;
36423;SDS011;22458;45.328;9.514;2023-04-15T12:56:35;3.38;;;2.80;;
36423;SDS011;22458;45.328;9.514;2023-04-15T12:59:01;4.28;;;3.88;;
36423;SDS011;22458;45.328;9.514;2023-04-15T13:01:27;3.95;;;2.83;;
36423;SDS011;22458;45.328;9.514;2023-04-15T13:03:53;4.13;;;2.97;;
36423;SDS011;22458;45.328;9.514;2023-04-15T13:06:18;4.63;;;2.78;;
36423;SDS011;22458;45.328;9.514;2023-04-15T13:08:44;3.58;;;3.22;;
36423;SDS011;22458;45.328;9.514;2023-04-15T13:11:10;3.38;;;3.08;;
36423;SDS011;22458;45.328;9.514;2023-04-15T13:13:36;4.03;;;3.47;;
36423;SDS011;22458;45.328;9.514;2023-04-15T13:16:02;3.75;;;3.17;;
36423;SDS011;22458;45.328;9.514;2023-04-15T13:18:27;5.80;;;2.72;;
36423;SDS011;22458;45.328;9.514;2023-04-15T13:20:55;3.00;;;2.10;;
36423;SDS011;22458;45.328;9.514;2023-04-15T13:23:21;2.95;;;2.30;;
36423;SDS011;22458;45.328;9.514;2023-04-15T13:25:47;3.53;;;2.97;;
36423;SDS011;22458;45.328;9.514;2023-04-15T13:28:12;4.63;;;3.70;;
36423;SDS011;22458;45.328;9.514;2023-04-15T13:30:40;5.53;;;3.67;;
36423;SDS011;22458;45.328;9.514;2023-04-15T13:35:36;4.45;;;4.05;;
36423;SDS011;22458;45.328;9.514;2023-04-15T13:38:01;4.07;;;3.30;;
36423;SDS011;22458;45.328;9.514;2023-04-15T13:40:27;4.60;;;4.15;;
36423;SDS011;22458;45.328;9.514;2023-04-15T13:42:53;5.53;;;3.90;;
36423;SDS011;22458;45.328;9.514;2023-04-15T13:45:22;3.50;;;3.10;;
36423;SDS011;22458;45.328;9.514;2023-04-15T13:47:48;6.63;;;3.85;;
36423;SDS011;22458;45.328;9.514;2023-04-15T13:50:14;4.93;;;4.05;;
36423;SDS011;22458;45.328;9.514;2023-04-15T13:52:39;5.60;;;4.10;;
36423;SDS011;22458;45.328;9.514;2023-04-15T13:55:05;3.47;;;3.17;;
36423;SDS011;22458;45.328;9.514;2023-04-15T13:57:31;4.55;;;3.40;;
36423;SDS011;22458;45.328;9.514;2023-04-15T13:59:57;4.13;;;3.72;;
36423;SDS011;22458;45.328;9.514;2023-04-15T14:02:23;4.40;;;3.63;;
36423;SDS011;22458;45.328;9.514;2023-04-15T14:04:49;3.80;;;3.25;;
36423;SDS011;22458;45.328;9.514;2023-04-15T14:07:15;4.97;;;4.07;;
36423;SDS011;22458;45.328;9.514;2023-04-15T14:09:42;4.70;;;3.80;;
36423;SDS011;22458;45.328;9.514;2023-04-15T14:12:08;4.30;;;3.90;;
36423;SDS011;22458;45.328;9.514;2023-04-15T14:14:35;4.63;;;4.22;;
36423;SDS011;22458;45.328;9.514;2023-04-15T14:17:01;4.55;;;4.00;;
36423;SDS011;22458;45.328;9.514;2023-04-15T14:19:31;4.95;;;3.80;;
36423;SDS011;22458;45.328;9.514;2023-04-15T14:21:57;5.65;;;4.38;;
36423;SDS011;22458;45.328;9.514;2023-04-15T14:24:23;4.90;;;4.40;;
36423;SDS011;22458;45.328;9.514;2023-04-15T14:26:49;4.53;;;4.13;;
36423;SDS011;22458;45.328;9.514;2023-04-15T14:29:15;4.95;;;4.32;;
36423;SDS011;22458;45.328;9.514;2023-04-15T14:31:41;4.68;;;4.25;;
36423;SDS011;22458;45.328;9.514;2023-04-15T14:34:09;4.70;;;4.30;;
36423;SDS011;22458;45.328;9.514;2023-04-15T14:36:35;6.70;;;4.45;;
36423;SDS011;22458;45.328;9.514;2023-04-15T14:39:02;4.70;;;4.20;;
36423;SDS011;22458;45.328;9.514;2023-04-15T14:41:28;5.82;;;4.93;;
36423;SDS011;22458;45.328;9.514;2023-04-15T14:43:54;4.95;;;4.45;;
36423;SDS011;22458;45.328;9.514;2023-04-15T14:46:21;4.90;;;4.25;;
36423;SDS011;22458;45.328;9.514;2023-04-15T14:48:47;4.60;;;4.20;;
36423;SDS011;22458;45.328;9.514;2023-04-15T14:51:13;4.55;;;4.00;;
36423;SDS011;22458;45.328;9.514;2023-04-15T14:53:40;5.38;;;4.32;;
36423;SDS011;22458;45.328;9.514;2023-04-15T14:56:06;4.50;;;4.10;;
36423;SDS011;22458;45.328;9.514;2023-04-15T14:58:31;4.93;;;4.35;;
36423;SDS011;22458;45.328;9.514;2023-04-15T15:00:57;4.40;;;3.53;;
36423;SDS011;22458;45.328;9.514;2023-04-15T15:03:23;5.43;;;4.38;;
36423;SDS011;22458;45.328;9.514;2023-04-15T15:05:49;4.85;;;4.03;;
36423;SDS011;22458;45.328;9.514;2023-04-15T15:08:15;5.22;;;4.30;;
36423;SDS011;22458;45.328;9.514;2023-04-15T15:10:41;5.13;;;4.20;;
36423;SDS011;22458;45.328;9.514;2023-04-15T15:13:07;5.03;;;4.05;;
36423;SDS011;22458;45.328;9.514;2023-04-15T15:15:35;6.15;;;4.65;;